sensor_id;sensor_type;location;lat;lon;timestamp;P1;durP1;ratioP1;P2;durP2;ratioP2
39050;SDS011;24805;55.852;37.644;2024-03-23T00:53:55;27.90;;;18.27;;
39050;SDS011;24805;55.852;37.644;2024-03-23T00:58:56;30.58;;;20.02;;
39050;SDS011;24805;55.852;37.644;2024-03-23T01:03:58;30.17;;;18.17;;
39050;SDS011;24805;55.852;37.644;2024-03-23T01:09:00;30.27;;;17.85;;
39050;SDS011;24805;55.852;37.644;2024-03-23T01:14:01;32.50;;;19.40;;
39050;SDS011;24805;55.852;37.644;2024-03-23T01:19:02;29.00;;;17.48;;
39050;SDS011;24805;55.852;37.644;2024-03-23T01:24:03;29.67;;;18.90;;
39050;SDS011;24805;55.852;37.644;2024-03-23T01:29:05;30.55;;;18.98;;
39050;SDS011;24805;55.852;37.644;2024-03-23T01:34:06;32.80;;;19.20;;
39050;SDS011;24805;55.852;37.644;2024-03-23T01:39:07;35.27;;;19.60;;
39050;SDS011;24805;55.852;37.644;2024-03-23T01:44:10;34.30;;;20.17;;
39050;SDS011;24805;55.852;37.644;2024-03-23T01:49:11;28.45;;;17.75;;
39050;SDS011;24805;55.852;37.644;2024-03-23T01:54:13;33.55;;;18.90;;
39050;SDS011;24805;55.852;37.644;2024-03-23T01:59:14;33.08;;;18.77;;
39050;SDS011;24805;55.852;37.644;2024-03-23T02:04:16;32.37;;;17.93;;
39050;SDS011;24805;55.852;37.644;2024-03-23T02:09:17;28.40;;;16.55;;
39050;SDS011;24805;55.852;37.644;2024-03-23T02:14:18;32.37;;;19.30;;
39050;SDS011;24805;55.852;37.644;2024-03-23T02:19:19;30.43;;;19.50;;
39050;SDS011;24805;55.852;37.644;2024-03-23T02:24:20;30.60;;;18.67;;
39050;SDS011;24805;55.852;37.644;2024-03-23T02:29:21;33.20;;;19.20;;
39050;SDS011;24805;55.852;37.644;2024-03-23T02:34:23;30.77;;;18.35;;
39050;SDS011;24805;55.852;37.644;2024-03-23T02:39:24;29.00;;;19.13;;
39050;SDS011;24805;55.852;37.644;2024-03-23T02:44:25;24.95;;;16.70;;
39050;SDS011;24805;55.852;37.644;2024-03-23T02:49:26;33.22;;;17.63;;
39050;SDS011;24805;55.852;37.644;2024-03-23T02:54:28;30.05;;;17.42;;
39050;SDS011;24805;55.852;37.644;2024-03-23T02:59:29;29.95;;;18.08;;
39050;SDS011;24805;55.852;37.644;2024-03-23T03:04:30;32.47;;;18.33;;
39050;SDS011;24805;55.852;37.644;2024-03-23T03:09:32;32.60;;;20.00;;
39050;SDS011;24805;55.852;37.644;2024-03-23T03:14:33;26.00;;;16.90;;
39050;SDS011;24805;55.852;37.644;2024-03-23T03:19:35;29.90;;;18.30;;
39050;SDS011;24805;55.852;37.644;2024-03-23T03:24:36;30.65;;;18.25;;
39050;SDS011;24805;55.852;37.644;2024-03-23T03:29:38;34.13;;;18.58;;
39050;SDS011;24805;55.852;37.644;2024-03-23T03:34:39;31.00;;;19.38;;
39050;SDS011;24805;55.852;37.644;2024-03-23T03:39:40;28.67;;;17.27;;
39050;SDS011;24805;55.852;37.644;2024-03-23T03:44:42;31.35;;;19.52;;
39050;SDS011;24805;55.852;37.644;2024-03-23T03:49:43;31.47;;;18.03;;
39050;SDS011;24805;55.852;37.644;2024-03-23T03:54:44;29.83;;;18.00;;
39050;SDS011;24805;55.852;37.644;2024-03-23T03:59:45;28.57;;;17.40;;
39050;SDS011;24805;55.852;37.644;2024-03-23T04:04:46;32.27;;;17.77;;
39050;SDS011;24805;55.852;37.644;2024-03-23T04:09:48;29.45;;;18.55;;
39050;SDS011;24805;55.852;37.644;2024-03-23T04:14:50;33.78;;;19.80;;
39050;SDS011;24805;55.852;37.644;2024-03-23T04:19:51;26.67;;;16.43;;
39050;SDS011;24805;55.852;37.644;2024-03-23T04:24:56;32.22;;;18.90;;
39050;SDS011;24805;55.852;37.644;2024-03-23T04:29:58;33.92;;;19.48;;
39050;SDS011;24805;55.852;37.644;2024-03-23T04:35:01;30.98;;;18.77;;
39050;SDS011;24805;55.852;37.644;2024-03-23T04:40:06;32.35;;;18.35;;
39050;SDS011;24805;55.852;37.644;2024-03-23T04:50:09;32.28;;;17.80;;
39050;SDS011;24805;55.852;37.644;2024-03-23T04:55:13;33.00;;;18.35;;
39050;SDS011;24805;55.852;37.644;2024-03-23T05:05:19;24.73;;;15.25;;
39050;SDS011;24805;55.852;37.644;2024-03-23T05:10:20;25.40;;;16.53;;
39050;SDS011;24805;55.852;37.644;2024-03-23T05:15:21;28.70;;;17.30;;
39050;SDS011;24805;55.852;37.644;2024-03-23T05:20:23;25.00;;;15.88;;
39050;SDS011;24805;55.852;37.644;2024-03-23T05:25:24;25.53;;;16.37;;
39050;SDS011;24805;55.852;37.644;2024-03-23T05:30:25;24.83;;;15.13;;
39050;SDS011;24805;55.852;37.644;2024-03-23T05:35:26;24.73;;;16.53;;
39050;SDS011;24805;55.852;37.644;2024-03-23T05:40:27;24.87;;;15.63;;
39050;SDS011;24805;55.852;37.644;2024-03-23T05:45:28;24.93;;;14.50;;
39050;SDS011;24805;55.852;37.644;2024-03-23T05:50:30;23.52;;;14.68;;
39050;SDS011;24805;55.852;37.644;2024-03-23T05:55:31;21.50;;;14.60;;
39050;SDS011;24805;55.852;37.644;2024-03-23T06:00:32;23.90;;;16.13;;
39050;SDS011;24805;55.852;37.644;2024-03-23T06:05:34;20.17;;;13.45;;
39050;SDS011;24805;55.852;37.644;2024-03-23T06:10:35;21.35;;;14.55;;
39050;SDS011;24805;55.852;37.644;2024-03-23T06:15:36;18.87;;;12.93;;
39050;SDS011;24805;55.852;37.644;2024-03-23T06:20:38;15.70;;;11.10;;
39050;SDS011;24805;55.852;37.644;2024-03-23T06:25:40;17.95;;;11.60;;
39050;SDS011;24805;55.852;37.644;2024-03-23T06:30:41;18.20;;;11.27;;
39050;SDS011;24805;55.852;37.644;2024-03-23T06:35:42;20.53;;;11.13;;
39050;SDS011;24805;55.852;37.644;2024-03-23T06:40:43;15.32;;;10.73;;
39050;SDS011;24805;55.852;37.644;2024-03-23T06:45:54;18.38;;;10.75;;
39050;SDS011;24805;55.852;37.644;2024-03-23T06:50:56;17.30;;;11.65;;
39050;SDS011;24805;55.852;37.644;2024-03-23T06:55:57;15.35;;;10.15;;
39050;SDS011;24805;55.852;37.644;2024-03-23T07:00:59;19.45;;;11.18;;
39050;SDS011;24805;55.852;37.644;2024-03-23T07:06:00;16.67;;;11.20;;
39050;SDS011;24805;55.852;37.644;2024-03-23T07:11:01;17.77;;;11.40;;
39050;SDS011;24805;55.852;37.644;2024-03-23T07:16:03;14.70;;;9.48;;
39050;SDS011;24805;55.852;37.644;2024-03-23T07:21:04;16.40;;;10.45;;
39050;SDS011;24805;55.852;37.644;2024-03-23T07:26:07;12.63;;;9.77;;
39050;SDS011;24805;55.852;37.644;2024-03-23T07:31:09;15.68;;;9.10;;
39050;SDS011;24805;55.852;37.644;2024-03-23T07:36:11;16.70;;;10.05;;
39050;SDS011;24805;55.852;37.644;2024-03-23T07:41:17;15.70;;;9.07;;
39050;SDS011;24805;55.852;37.644;2024-03-23T07:46:20;16.55;;;9.75;;
39050;SDS011;24805;55.852;37.644;2024-03-23T07:51:22;15.27;;;10.35;;
39050;SDS011;24805;55.852;37.644;2024-03-23T07:56:23;17.55;;;9.98;;
39050;SDS011;24805;55.852;37.644;2024-03-23T08:01:24;13.73;;;9.93;;
39050;SDS011;24805;55.852;37.644;2024-03-23T08:06:26;14.43;;;10.60;;
39050;SDS011;24805;55.852;37.644;2024-03-23T08:11:27;14.27;;;10.52;;
39050;SDS011;24805;55.852;37.644;2024-03-23T08:16:30;12.60;;;9.10;;
39050;SDS011;24805;55.852;37.644;2024-03-23T08:21:31;12.02;;;9.30;;
39050;SDS011;24805;55.852;37.644;2024-03-23T08:26:33;15.15;;;9.73;;
39050;SDS011;24805;55.852;37.644;2024-03-23T08:31:34;12.38;;;9.63;;
39050;SDS011;24805;55.852;37.644;2024-03-23T08:36:36;11.83;;;8.37;;
39050;SDS011;24805;55.852;37.644;2024-03-23T08:41:37;18.25;;;9.88;;
39050;SDS011;24805;55.852;37.644;2024-03-23T08:46:38;11.80;;;9.00;;
39050;SDS011;24805;55.852;37.644;2024-03-23T08:51:39;15.77;;;9.33;;
39050;SDS011;24805;55.852;37.644;2024-03-23T08:56:40;11.23;;;8.68;;
39050;SDS011;24805;55.852;37.644;2024-03-23T09:01:42;15.13;;;10.15;;
39050;SDS011;24805;55.852;37.644;2024-03-23T09:06:43;11.77;;;8.77;;
39050;SDS011;24805;55.852;37.644;2024-03-23T09:11:44;8.63;;;6.93;;
39050;SDS011;24805;55.852;37.644;2024-03-23T09:16:45;13.47;;;9.33;;
39050;SDS011;24805;55.852;37.644;2024-03-23T09:21:46;12.23;;;8.98;;
39050;SDS011;24805;55.852;37.644;2024-03-23T09:26:48;11.40;;;8.93;;
39050;SDS011;24805;55.852;37.644;2024-03-23T09:31:49;13.82;;;8.52;;
39050;SDS011;24805;55.852;37.644;2024-03-23T09:36:51;11.77;;;8.70;;
39050;SDS011;24805;55.852;37.644;2024-03-23T09:41:56;10.95;;;7.25;;
39050;SDS011;24805;55.852;37.644;2024-03-23T09:46:57;13.15;;;8.80;;
39050;SDS011;24805;55.852;37.644;2024-03-23T09:51:59;11.65;;;8.18;;
39050;SDS011;24805;55.852;37.644;2024-03-23T09:57:00;13.40;;;9.10;;
39050;SDS011;24805;55.852;37.644;2024-03-23T10:02:02;12.00;;;9.32;;
39050;SDS011;24805;55.852;37.644;2024-03-23T10:07:18;11.13;;;8.70;;
39050;SDS011;24805;55.852;37.644;2024-03-23T10:12:20;12.65;;;8.68;;
39050;SDS011;24805;55.852;37.644;2024-03-23T10:17:22;11.30;;;8.73;;
39050;SDS011;24805;55.852;37.644;2024-03-23T10:22:24;12.27;;;9.85;;
39050;SDS011;24805;55.852;37.644;2024-03-23T10:27:44;11.15;;;8.70;;
39050;SDS011;24805;55.852;37.644;2024-03-23T10:33:11;13.60;;;8.57;;
39050;SDS011;24805;55.852;37.644;2024-03-23T10:38:32;10.85;;;7.30;;
39050;SDS011;24805;55.852;37.644;2024-03-23T10:43:34;11.48;;;8.75;;
39050;SDS011;24805;55.852;37.644;2024-03-23T10:48:36;9.38;;;7.10;;
39050;SDS011;24805;55.852;37.644;2024-03-23T10:58:43;10.88;;;8.73;;
39050;SDS011;24805;55.852;37.644;2024-03-23T11:03:48;11.13;;;8.18;;
39050;SDS011;24805;55.852;37.644;2024-03-23T11:08:49;9.60;;;8.00;;
39050;SDS011;24805;55.852;37.644;2024-03-23T11:13:51;11.43;;;8.53;;
39050;SDS011;24805;55.852;37.644;2024-03-23T11:18:53;10.45;;;8.05;;
39050;SDS011;24805;55.852;37.644;2024-03-23T11:24:01;10.98;;;9.10;;
39050;SDS011;24805;55.852;37.644;2024-03-23T11:29:15;13.38;;;9.90;;
39050;SDS011;24805;55.852;37.644;2024-03-23T11:34:18;13.52;;;9.57;;
39050;SDS011;24805;55.852;37.644;2024-03-23T11:39:20;11.27;;;9.52;;
39050;SDS011;24805;55.852;37.644;2024-03-23T11:44:22;12.32;;;9.40;;
39050;SDS011;24805;55.852;37.644;2024-03-23T11:49:26;11.50;;;8.85;;
39050;SDS011;24805;55.852;37.644;2024-03-23T11:54:28;11.27;;;8.70;;
39050;SDS011;24805;55.852;37.644;2024-03-23T12:04:43;12.43;;;10.13;;
39050;SDS011;24805;55.852;37.644;2024-03-23T12:09:44;15.33;;;10.07;;
39050;SDS011;24805;55.852;37.644;2024-03-23T12:15:05;14.35;;;9.90;;
39050;SDS011;24805;55.852;37.644;2024-03-23T12:20:09;12.82;;;10.63;;
39050;SDS011;24805;55.852;37.644;2024-03-23T12:25:10;12.77;;;10.25;;
39050;SDS011;24805;55.852;37.644;2024-03-23T12:30:11;16.23;;;11.23;;
39050;SDS011;24805;55.852;37.644;2024-03-23T12:35:13;15.15;;;9.73;;
39050;SDS011;24805;55.852;37.644;2024-03-23T12:40:14;13.33;;;9.93;;
39050;SDS011;24805;55.852;37.644;2024-03-23T12:45:15;14.20;;;10.17;;
39050;SDS011;24805;55.852;37.644;2024-03-23T12:50:17;13.60;;;10.55;;
39050;SDS011;24805;55.852;37.644;2024-03-23T12:55:18;14.98;;;11.18;;
39050;SDS011;24805;55.852;37.644;2024-03-23T13:00:19;14.13;;;9.93;;
39050;SDS011;24805;55.852;37.644;2024-03-23T13:05:21;15.38;;;11.38;;
39050;SDS011;24805;55.852;37.644;2024-03-23T13:10:22;16.50;;;10.10;;
39050;SDS011;24805;55.852;37.644;2024-03-23T13:15:23;16.83;;;11.43;;
39050;SDS011;24805;55.852;37.644;2024-03-23T13:20:25;15.85;;;10.75;;
39050;SDS011;24805;55.852;37.644;2024-03-23T13:25:27;16.30;;;10.93;;
39050;SDS011;24805;55.852;37.644;2024-03-23T13:30:28;15.30;;;12.07;;
39050;SDS011;24805;55.852;37.644;2024-03-23T13:35:29;17.60;;;11.50;;
39050;SDS011;24805;55.852;37.644;2024-03-23T13:40:30;14.73;;;10.23;;
39050;SDS011;24805;55.852;37.644;2024-03-23T13:45:32;15.20;;;11.47;;
39050;SDS011;24805;55.852;37.644;2024-03-23T13:50:33;15.63;;;10.60;;
39050;SDS011;24805;55.852;37.644;2024-03-23T13:55:34;15.30;;;11.25;;
39050;SDS011;24805;55.852;37.644;2024-03-23T14:05:37;16.95;;;9.57;;
39050;SDS011;24805;55.852;37.644;2024-03-23T14:15:43;9.75;;;7.97;;
39050;SDS011;24805;55.852;37.644;2024-03-23T14:20:45;15.87;;;9.10;;
39050;SDS011;24805;55.852;37.644;2024-03-23T14:25:46;11.45;;;8.10;;
39050;SDS011;24805;55.852;37.644;2024-03-23T14:30:47;9.33;;;7.70;;
39050;SDS011;24805;55.852;37.644;2024-03-23T14:35:52;10.80;;;7.97;;
39050;SDS011;24805;55.852;37.644;2024-03-23T14:40:57;11.10;;;7.45;;
39050;SDS011;24805;55.852;37.644;2024-03-23T14:51:12;10.95;;;6.80;;
39050;SDS011;24805;55.852;37.644;2024-03-23T14:56:13;8.98;;;6.93;;
39050;SDS011;24805;55.852;37.644;2024-03-23T15:01:16;7.38;;;5.85;;
39050;SDS011;24805;55.852;37.644;2024-03-23T15:06:17;9.33;;;6.30;;
39050;SDS011;24805;55.852;37.644;2024-03-23T15:11:19;7.90;;;5.57;;
39050;SDS011;24805;55.852;37.644;2024-03-23T15:16:20;7.07;;;5.60;;
39050;SDS011;24805;55.852;37.644;2024-03-23T15:21:21;7.97;;;5.97;;
39050;SDS011;24805;55.852;37.644;2024-03-23T15:26:22;6.60;;;5.03;;
39050;SDS011;24805;55.852;37.644;2024-03-23T15:31:24;8.73;;;6.37;;
39050;SDS011;24805;55.852;37.644;2024-03-23T15:36:26;8.32;;;6.32;;
39050;SDS011;24805;55.852;37.644;2024-03-23T15:41:27;7.45;;;5.82;;
39050;SDS011;24805;55.852;37.644;2024-03-23T15:46:28;8.23;;;6.30;;
39050;SDS011;24805;55.852;37.644;2024-03-23T15:51:29;6.90;;;5.80;;
39050;SDS011;24805;55.852;37.644;2024-03-23T15:56:33;8.07;;;6.40;;
39050;SDS011;24805;55.852;37.644;2024-03-23T16:01:34;7.77;;;5.80;;
39050;SDS011;24805;55.852;37.644;2024-03-23T16:06:35;9.50;;;6.50;;
39050;SDS011;24805;55.852;37.644;2024-03-23T16:11:37;9.50;;;5.80;;
39050;SDS011;24805;55.852;37.644;2024-03-23T16:16:38;8.68;;;5.63;;
39050;SDS011;24805;55.852;37.644;2024-03-23T16:21:39;7.55;;;5.65;;
39050;SDS011;24805;55.852;37.644;2024-03-23T16:26:40;7.20;;;5.82;;
39050;SDS011;24805;55.852;37.644;2024-03-23T16:31:42;6.72;;;4.93;;
39050;SDS011;24805;55.852;37.644;2024-03-23T16:36:43;5.72;;;4.70;;
39050;SDS011;24805;55.852;37.644;2024-03-23T16:41:44;5.13;;;4.60;;
39050;SDS011;24805;55.852;37.644;2024-03-23T16:46:45;5.57;;;4.63;;
39050;SDS011;24805;55.852;37.644;2024-03-23T16:51:46;7.23;;;4.20;;
39050;SDS011;24805;55.852;37.644;2024-03-23T16:56:47;4.90;;;3.30;;
39050;SDS011;24805;55.852;37.644;2024-03-23T17:01:49;6.63;;;4.80;;
39050;SDS011;24805;55.852;37.644;2024-03-23T17:06:50;5.10;;;4.25;;
39050;SDS011;24805;55.852;37.644;2024-03-23T17:11:51;6.63;;;3.60;;
39050;SDS011;24805;55.852;37.644;2024-03-23T17:16:53;5.05;;;3.88;;
39050;SDS011;24805;55.852;37.644;2024-03-23T17:21:54;6.10;;;4.25;;
39050;SDS011;24805;55.852;37.644;2024-03-23T17:26:55;5.78;;;4.25;;
39050;SDS011;24805;55.852;37.644;2024-03-23T17:31:56;5.27;;;3.73;;
39050;SDS011;24805;55.852;37.644;2024-03-23T17:36:57;5.33;;;3.70;;
39050;SDS011;24805;55.852;37.644;2024-03-23T17:41:58;4.90;;;3.93;;
39050;SDS011;24805;55.852;37.644;2024-03-23T17:47:00;5.40;;;4.30;;
39050;SDS011;24805;55.852;37.644;2024-03-23T17:52:01;5.87;;;4.30;;
39050;SDS011;24805;55.852;37.644;2024-03-23T17:57:11;6.60;;;4.32;;
39050;SDS011;24805;55.852;37.644;2024-03-23T18:02:12;6.80;;;3.95;;
39050;SDS011;24805;55.852;37.644;2024-03-23T18:07:16;6.22;;;3.83;;
39050;SDS011;24805;55.852;37.644;2024-03-23T18:12:17;7.15;;;4.63;;
39050;SDS011;24805;55.852;37.644;2024-03-23T18:17:20;6.72;;;4.05;;
39050;SDS011;24805;55.852;37.644;2024-03-23T18:22:21;6.13;;;4.70;;
39050;SDS011;24805;55.852;37.644;2024-03-23T18:27:22;5.40;;;3.83;;
39050;SDS011;24805;55.852;37.644;2024-03-23T18:32:24;7.60;;;3.83;;
39050;SDS011;24805;55.852;37.644;2024-03-23T18:37:28;6.43;;;4.28;;
39050;SDS011;24805;55.852;37.644;2024-03-23T18:42:34;6.43;;;4.40;;
39050;SDS011;24805;55.852;37.644;2024-03-23T18:47:35;7.55;;;3.97;;
39050;SDS011;24805;55.852;37.644;2024-03-23T18:52:39;6.75;;;4.07;;
39050;SDS011;24805;55.852;37.644;2024-03-23T18:57:40;5.40;;;3.80;;
39050;SDS011;24805;55.852;37.644;2024-03-23T19:02:41;5.53;;;3.22;;
39050;SDS011;24805;55.852;37.644;2024-03-23T19:07:42;5.50;;;3.28;;
39050;SDS011;24805;55.852;37.644;2024-03-23T19:12:45;4.05;;;3.13;;
39050;SDS011;24805;55.852;37.644;2024-03-23T19:17:46;5.53;;;3.75;;
39050;SDS011;24805;55.852;37.644;2024-03-23T19:22:48;4.82;;;3.42;;
39050;SDS011;24805;55.852;37.644;2024-03-23T19:27:49;3.95;;;2.45;;
39050;SDS011;24805;55.852;37.644;2024-03-23T19:32:50;7.18;;;3.38;;
39050;SDS011;24805;55.852;37.644;2024-03-23T19:37:51;6.30;;;3.47;;
39050;SDS011;24805;55.852;37.644;2024-03-23T19:42:56;6.15;;;3.45;;
39050;SDS011;24805;55.852;37.644;2024-03-23T19:47:57;3.92;;;2.90;;
39050;SDS011;24805;55.852;37.644;2024-03-23T19:52:58;3.95;;;2.78;;
39050;SDS011;24805;55.852;37.644;2024-03-23T19:57:59;3.85;;;2.60;;
39050;SDS011;24805;55.852;37.644;2024-03-23T20:03:01;6.30;;;3.38;;
39050;SDS011;24805;55.852;37.644;2024-03-23T20:08:06;3.80;;;2.80;;
39050;SDS011;24805;55.852;37.644;2024-03-23T20:13:09;6.38;;;2.60;;
39050;SDS011;24805;55.852;37.644;2024-03-23T20:18:11;5.78;;;3.03;;
39050;SDS011;24805;55.852;37.644;2024-03-23T20:23:12;5.30;;;2.60;;
39050;SDS011;24805;55.852;37.644;2024-03-23T20:28:13;4.10;;;2.30;;
39050;SDS011;24805;55.852;37.644;2024-03-23T20:33:14;4.15;;;2.20;;
39050;SDS011;24805;55.852;37.644;2024-03-23T20:38:16;4.70;;;2.40;;
39050;SDS011;24805;55.852;37.644;2024-03-23T20:43:19;5.60;;;2.55;;
39050;SDS011;24805;55.852;37.644;2024-03-23T20:48:20;3.88;;;2.90;;
39050;SDS011;24805;55.852;37.644;2024-03-23T20:53:22;4.68;;;2.67;;
39050;SDS011;24805;55.852;37.644;2024-03-23T20:58:25;3.25;;;2.10;;
39050;SDS011;24805;55.852;37.644;2024-03-23T21:03:27;6.25;;;2.53;;
39050;SDS011;24805;55.852;37.644;2024-03-23T21:08:29;4.75;;;2.70;;
39050;SDS011;24805;55.852;37.644;2024-03-23T21:13:31;5.20;;;2.40;;
39050;SDS011;24805;55.852;37.644;2024-03-23T21:18:32;5.78;;;2.40;;
39050;SDS011;24805;55.852;37.644;2024-03-23T21:23:34;5.22;;;3.08;;
39050;SDS011;24805;55.852;37.644;2024-03-23T21:33:37;6.50;;;4.68;;
39050;SDS011;24805;55.852;37.644;2024-03-23T21:38:38;6.05;;;3.92;;
39050;SDS011;24805;55.852;37.644;2024-03-23T21:43:39;5.95;;;4.65;;
39050;SDS011;24805;55.852;37.644;2024-03-23T21:48:41;6.22;;;4.72;;
39050;SDS011;24805;55.852;37.644;2024-03-23T21:53:45;6.93;;;4.53;;
39050;SDS011;24805;55.852;37.644;2024-03-23T21:58:46;6.32;;;4.55;;
39050;SDS011;24805;55.852;37.644;2024-03-23T22:03:47;6.60;;;4.20;;
39050;SDS011;24805;55.852;37.644;2024-03-23T22:08:52;7.35;;;5.18;;
39050;SDS011;24805;55.852;37.644;2024-03-23T22:13:53;7.10;;;5.10;;
39050;SDS011;24805;55.852;37.644;2024-03-23T22:18:55;7.30;;;5.53;;
39050;SDS011;24805;55.852;37.644;2024-03-23T22:23:56;6.45;;;5.55;;
39050;SDS011;24805;55.852;37.644;2024-03-23T22:28:58;7.82;;;5.47;;
39050;SDS011;24805;55.852;37.644;2024-03-23T22:34:00;6.95;;;4.75;;
39050;SDS011;24805;55.852;37.644;2024-03-23T22:39:01;8.52;;;5.13;;
39050;SDS011;24805;55.852;37.644;2024-03-23T22:44:02;8.65;;;6.00;;
39050;SDS011;24805;55.852;37.644;2024-03-23T22:54:25;9.68;;;6.53;;
39050;SDS011;24805;55.852;37.644;2024-03-23T22:59:27;8.77;;;6.50;;
39050;SDS011;24805;55.852;37.644;2024-03-23T23:04:28;8.50;;;6.70;;
39050;SDS011;24805;55.852;37.644;2024-03-23T23:09:35;7.75;;;6.65;;
39050;SDS011;24805;55.852;37.644;2024-03-23T23:14:36;9.75;;;6.82;;
39050;SDS011;24805;55.852;37.644;2024-03-23T23:19:37;8.17;;;6.13;;
39050;SDS011;24805;55.852;37.644;2024-03-23T23:24:38;9.77;;;7.38;;
39050;SDS011;24805;55.852;37.644;2024-03-23T23:29:40;9.15;;;7.40;;
39050;SDS011;24805;55.852;37.644;2024-03-23T23:34:42;10.57;;;8.25;;
39050;SDS011;24805;55.852;37.644;2024-03-23T23:39:43;10.47;;;7.53;;
39050;SDS011;24805;55.852;37.644;2024-03-23T23:44:44;9.80;;;7.72;;
39050;SDS011;24805;55.852;37.644;2024-03-23T23:49:45;10.68;;;8.38;;
39050;SDS011;24805;55.852;37.644;2024-03-23T23:54:47;11.45;;;8.43;;
39050;SDS011;24805;55.852;37.644;2024-03-23T23:59:50;13.18;;;8.35;;
